sensor_id;sensor_type;location;lat;lon;timestamp;P1;durP1;ratioP1;P2;durP2;ratioP2
52734;SDS011;38631;47.572;10.704;2023-11-18T00:01:45;7.90;;;4.15;;
52734;SDS011;38631;47.572;10.704;2023-11-18T00:04:11;4.72;;;3.10;;
52734;SDS011;38631;47.572;10.704;2023-11-18T00:06:44;4.63;;;2.50;;
52734;SDS011;38631;47.572;10.704;2023-11-18T00:09:13;4.40;;;2.80;;
52734;SDS011;38631;47.572;10.704;2023-11-18T00:11:41;4.35;;;2.83;;
52734;SDS011;38631;47.572;10.704;2023-11-18T00:14:07;3.30;;;2.47;;
52734;SDS011;38631;47.572;10.704;2023-11-18T00:16:33;3.13;;;2.40;;
52734;SDS011;38631;47.572;10.704;2023-11-18T00:18:59;3.10;;;1.58;;
52734;SDS011;38631;47.572;10.704;2023-11-18T00:21:25;2.58;;;1.73;;
52734;SDS011;38631;47.572;10.704;2023-11-18T00:23:50;2.15;;;1.30;;
52734;SDS011;38631;47.572;10.704;2023-11-18T00:26:16;1.42;;;1.10;;
52734;SDS011;38631;47.572;10.704;2023-11-18T00:28:41;2.63;;;1.70;;
52734;SDS011;38631;47.572;10.704;2023-11-18T00:31:06;1.88;;;1.42;;
52734;SDS011;38631;47.572;10.704;2023-11-18T00:33:32;1.77;;;1.23;;
52734;SDS011;38631;47.572;10.704;2023-11-18T00:35:58;2.30;;;1.58;;
52734;SDS011;38631;47.572;10.704;2023-11-18T00:38:25;1.85;;;1.20;;
52734;SDS011;38631;47.572;10.704;2023-11-18T00:40:50;1.58;;;1.00;;
52734;SDS011;38631;47.572;10.704;2023-11-18T00:43:16;1.48;;;1.00;;
52734;SDS011;38631;47.572;10.704;2023-11-18T00:45:42;1.55;;;0.75;;
52734;SDS011;38631;47.572;10.704;2023-11-18T00:48:08;1.42;;;0.80;;
52734;SDS011;38631;47.572;10.704;2023-11-18T00:50:34;1.15;;;0.70;;
52734;SDS011;38631;47.572;10.704;2023-11-18T00:52:59;1.35;;;0.60;;
52734;SDS011;38631;47.572;10.704;2023-11-18T00:55:25;0.90;;;0.50;;
52734;SDS011;38631;47.572;10.704;2023-11-18T00:57:50;0.65;;;0.40;;
52734;SDS011;38631;47.572;10.704;2023-11-18T01:00:16;0.60;;;0.40;;
52734;SDS011;38631;47.572;10.704;2023-11-18T01:02:42;0.98;;;0.40;;
52734;SDS011;38631;47.572;10.704;2023-11-18T01:05:08;0.73;;;0.43;;
52734;SDS011;38631;47.572;10.704;2023-11-18T01:07:35;0.80;;;0.52;;
52734;SDS011;38631;47.572;10.704;2023-11-18T01:10:01;1.10;;;0.60;;
52734;SDS011;38631;47.572;10.704;2023-11-18T01:12:26;1.90;;;0.40;;
52734;SDS011;38631;47.572;10.704;2023-11-18T01:14:52;0.30;;;0.30;;
52734;SDS011;38631;47.572;10.704;2023-11-18T01:17:17;0.50;;;0.50;;
52734;SDS011;38631;47.572;10.704;2023-11-18T01:19:42;0.50;;;0.40;;
52734;SDS011;38631;47.572;10.704;2023-11-18T01:22:08;0.80;;;0.28;;
52734;SDS011;38631;47.572;10.704;2023-11-18T01:24:36;0.70;;;0.40;;
52734;SDS011;38631;47.572;10.704;2023-11-18T01:27:02;0.50;;;0.40;;
52734;SDS011;38631;47.572;10.704;2023-11-18T01:29:27;0.82;;;0.45;;
52734;SDS011;38631;47.572;10.704;2023-11-18T01:31:53;0.50;;;0.40;;
52734;SDS011;38631;47.572;10.704;2023-11-18T01:34:20;0.68;;;0.43;;
52734;SDS011;38631;47.572;10.704;2023-11-18T01:36:48;0.68;;;0.40;;
52734;SDS011;38631;47.572;10.704;2023-11-18T01:39:17;1.33;;;0.70;;
52734;SDS011;38631;47.572;10.704;2023-11-18T01:41:43;0.50;;;0.40;;
52734;SDS011;38631;47.572;10.704;2023-11-18T01:44:09;0.70;;;0.50;;
52734;SDS011;38631;47.572;10.704;2023-11-18T01:46:35;0.60;;;0.50;;
52734;SDS011;38631;47.572;10.704;2023-11-18T01:49:01;0.90;;;0.40;;
52734;SDS011;38631;47.572;10.704;2023-11-18T01:51:29;0.68;;;0.40;;
52734;SDS011;38631;47.572;10.704;2023-11-18T01:53:55;0.60;;;0.40;;
52734;SDS011;38631;47.572;10.704;2023-11-18T01:56:24;0.60;;;0.40;;
52734;SDS011;38631;47.572;10.704;2023-11-18T01:58:51;0.68;;;0.45;;
52734;SDS011;38631;47.572;10.704;2023-11-18T02:01:17;0.75;;;0.50;;
52734;SDS011;38631;47.572;10.704;2023-11-18T02:03:43;0.60;;;0.40;;
52734;SDS011;38631;47.572;10.704;2023-11-18T02:06:09;0.28;;;0.20;;
52734;SDS011;38631;47.572;10.704;2023-11-18T02:08:35;0.35;;;0.30;;
52734;SDS011;38631;47.572;10.704;2023-11-18T02:11:17;0.50;;;0.40;;
52734;SDS011;38631;47.572;10.704;2023-11-18T02:13:49;0.50;;;0.40;;
52734;SDS011;38631;47.572;10.704;2023-11-18T02:16:18;0.70;;;0.50;;
52734;SDS011;38631;47.572;10.704;2023-11-18T02:18:45;0.75;;;0.40;;
52734;SDS011;38631;47.572;10.704;2023-11-18T02:21:12;0.52;;;0.30;;
52734;SDS011;38631;47.572;10.704;2023-11-18T02:23:40;0.40;;;0.30;;
52734;SDS011;38631;47.572;10.704;2023-11-18T02:26:06;0.65;;;0.50;;
52734;SDS011;38631;47.572;10.704;2023-11-18T02:28:32;0.57;;;0.40;;
52734;SDS011;38631;47.572;10.704;2023-11-18T02:31:09;1.27;;;0.90;;
52734;SDS011;38631;47.572;10.704;2023-11-18T02:33:47;1.05;;;0.70;;
52734;SDS011;38631;47.572;10.704;2023-11-18T02:36:23;0.80;;;0.70;;
52734;SDS011;38631;47.572;10.704;2023-11-18T02:39:00;0.80;;;0.60;;
52734;SDS011;38631;47.572;10.704;2023-11-18T02:41:32;1.08;;;0.70;;
52734;SDS011;38631;47.572;10.704;2023-11-18T02:43:59;1.45;;;0.75;;
52734;SDS011;38631;47.572;10.704;2023-11-18T02:46:25;0.75;;;0.50;;
52734;SDS011;38631;47.572;10.704;2023-11-18T02:48:53;1.05;;;0.57;;
52734;SDS011;38631;47.572;10.704;2023-11-18T02:51:19;1.33;;;0.60;;
52734;SDS011;38631;47.572;10.704;2023-11-18T02:53:44;0.77;;;0.50;;
52734;SDS011;38631;47.572;10.704;2023-11-18T02:56:10;1.48;;;0.95;;
52734;SDS011;38631;47.572;10.704;2023-11-18T02:58:36;2.55;;;1.50;;
52734;SDS011;38631;47.572;10.704;2023-11-18T03:01:01;3.20;;;2.13;;
52734;SDS011;38631;47.572;10.704;2023-11-18T03:03:29;1.70;;;1.55;;
52734;SDS011;38631;47.572;10.704;2023-11-18T03:05:54;2.47;;;1.70;;
52734;SDS011;38631;47.572;10.704;2023-11-18T03:08:20;2.47;;;1.90;;
52734;SDS011;38631;47.572;10.704;2023-11-18T03:10:45;3.13;;;1.92;;
52734;SDS011;38631;47.572;10.704;2023-11-18T03:13:11;4.72;;;2.00;;
52734;SDS011;38631;47.572;10.704;2023-11-18T03:15:37;2.60;;;2.00;;
52734;SDS011;38631;47.572;10.704;2023-11-18T03:18:02;2.47;;;1.75;;
52734;SDS011;38631;47.572;10.704;2023-11-18T03:20:28;3.80;;;1.98;;
52734;SDS011;38631;47.572;10.704;2023-11-18T03:22:54;2.75;;;1.83;;
52734;SDS011;38631;47.572;10.704;2023-11-18T03:25:19;3.22;;;1.70;;
52734;SDS011;38631;47.572;10.704;2023-11-18T03:27:46;2.40;;;1.95;;
52734;SDS011;38631;47.572;10.704;2023-11-18T03:30:12;2.22;;;1.65;;
52734;SDS011;38631;47.572;10.704;2023-11-18T03:32:38;2.25;;;1.55;;
52734;SDS011;38631;47.572;10.704;2023-11-18T03:35:05;3.63;;;1.83;;
52734;SDS011;38631;47.572;10.704;2023-11-18T03:37:35;3.78;;;2.17;;
52734;SDS011;38631;47.572;10.704;2023-11-18T03:40:03;3.42;;;2.40;;
52734;SDS011;38631;47.572;10.704;2023-11-18T03:42:32;3.75;;;2.60;;
52734;SDS011;38631;47.572;10.704;2023-11-18T03:44:57;4.28;;;3.17;;
52734;SDS011;38631;47.572;10.704;2023-11-18T03:47:23;5.28;;;2.83;;
52734;SDS011;38631;47.572;10.704;2023-11-18T03:49:49;3.60;;;2.50;;
52734;SDS011;38631;47.572;10.704;2023-11-18T03:52:15;2.95;;;2.15;;
52734;SDS011;38631;47.572;10.704;2023-11-18T03:54:40;3.55;;;2.33;;
52734;SDS011;38631;47.572;10.704;2023-11-18T03:57:06;4.15;;;2.50;;
52734;SDS011;38631;47.572;10.704;2023-11-18T03:59:32;4.53;;;2.75;;
52734;SDS011;38631;47.572;10.704;2023-11-18T04:01:57;5.15;;;3.45;;
52734;SDS011;38631;47.572;10.704;2023-11-18T04:04:23;2.90;;;2.38;;
52734;SDS011;38631;47.572;10.704;2023-11-18T04:06:48;3.10;;;2.40;;
52734;SDS011;38631;47.572;10.704;2023-11-18T04:09:13;3.42;;;2.20;;
52734;SDS011;38631;47.572;10.704;2023-11-18T04:11:39;3.05;;;2.15;;
52734;SDS011;38631;47.572;10.704;2023-11-18T04:14:05;3.05;;;1.98;;
52734;SDS011;38631;47.572;10.704;2023-11-18T04:16:30;3.15;;;2.30;;
52734;SDS011;38631;47.572;10.704;2023-11-18T04:18:56;2.88;;;2.50;;
52734;SDS011;38631;47.572;10.704;2023-11-18T04:21:21;3.67;;;3.08;;
52734;SDS011;38631;47.572;10.704;2023-11-18T04:23:47;2.95;;;2.45;;
52734;SDS011;38631;47.572;10.704;2023-11-18T04:26:13;2.75;;;2.03;;
52734;SDS011;38631;47.572;10.704;2023-11-18T04:28:38;3.15;;;2.25;;
52734;SDS011;38631;47.572;10.704;2023-11-18T04:31:04;2.58;;;2.20;;
52734;SDS011;38631;47.572;10.704;2023-11-18T04:33:30;3.95;;;2.40;;
52734;SDS011;38631;47.572;10.704;2023-11-18T04:35:56;3.85;;;2.80;;
52734;SDS011;38631;47.572;10.704;2023-11-18T04:38:25;3.58;;;2.50;;
52734;SDS011;38631;47.572;10.704;2023-11-18T04:40:51;2.83;;;2.30;;
52734;SDS011;38631;47.572;10.704;2023-11-18T04:43:17;3.60;;;2.25;;
52734;SDS011;38631;47.572;10.704;2023-11-18T04:45:43;3.70;;;2.53;;
52734;SDS011;38631;47.572;10.704;2023-11-18T04:48:08;3.30;;;2.22;;
52734;SDS011;38631;47.572;10.704;2023-11-18T04:50:34;4.38;;;3.15;;
52734;SDS011;38631;47.572;10.704;2023-11-18T04:52:59;4.25;;;2.85;;
52734;SDS011;38631;47.572;10.704;2023-11-18T04:55:25;4.35;;;2.95;;
52734;SDS011;38631;47.572;10.704;2023-11-18T04:57:53;4.53;;;3.33;;
52734;SDS011;38631;47.572;10.704;2023-11-18T05:00:19;3.85;;;3.08;;
52734;SDS011;38631;47.572;10.704;2023-11-18T05:02:45;4.90;;;3.28;;
52734;SDS011;38631;47.572;10.704;2023-11-18T05:05:12;4.82;;;3.38;;
52734;SDS011;38631;47.572;10.704;2023-11-18T05:07:41;5.07;;;3.60;;
52734;SDS011;38631;47.572;10.704;2023-11-18T05:10:07;5.05;;;3.38;;
52734;SDS011;38631;47.572;10.704;2023-11-18T05:12:34;4.88;;;3.95;;
52734;SDS011;38631;47.572;10.704;2023-11-18T05:14:59;5.45;;;3.80;;
52734;SDS011;38631;47.572;10.704;2023-11-18T05:17:25;7.53;;;4.45;;
52734;SDS011;38631;47.572;10.704;2023-11-18T05:19:51;5.95;;;3.95;;
52734;SDS011;38631;47.572;10.704;2023-11-18T05:22:18;6.15;;;4.40;;
52734;SDS011;38631;47.572;10.704;2023-11-18T05:24:44;5.60;;;3.42;;
52734;SDS011;38631;47.572;10.704;2023-11-18T05:27:09;4.65;;;3.20;;
52734;SDS011;38631;47.572;10.704;2023-11-18T05:29:34;6.32;;;4.32;;
52734;SDS011;38631;47.572;10.704;2023-11-18T05:32:00;8.20;;;5.10;;
52734;SDS011;38631;47.572;10.704;2023-11-18T05:34:25;12.98;;;6.57;;
52734;SDS011;38631;47.572;10.704;2023-11-18T05:36:50;5.75;;;4.40;;
52734;SDS011;38631;47.572;10.704;2023-11-18T05:39:19;6.30;;;4.22;;
52734;SDS011;38631;47.572;10.704;2023-11-18T05:41:46;5.93;;;3.88;;
52734;SDS011;38631;47.572;10.704;2023-11-18T05:44:15;10.13;;;5.88;;
52734;SDS011;38631;47.572;10.704;2023-11-18T05:46:47;8.20;;;5.32;;
52734;SDS011;38631;47.572;10.704;2023-11-18T05:49:13;13.25;;;7.32;;
52734;SDS011;38631;47.572;10.704;2023-11-18T05:51:39;4.82;;;3.80;;
52734;SDS011;38631;47.572;10.704;2023-11-18T05:54:08;7.10;;;4.20;;
52734;SDS011;38631;47.572;10.704;2023-11-18T05:56:33;6.00;;;4.43;;
52734;SDS011;38631;47.572;10.704;2023-11-18T05:58:59;4.47;;;3.38;;
52734;SDS011;38631;47.572;10.704;2023-11-18T06:01:27;5.50;;;3.40;;
52734;SDS011;38631;47.572;10.704;2023-11-18T06:03:53;5.25;;;3.75;;
52734;SDS011;38631;47.572;10.704;2023-11-18T06:06:18;4.85;;;3.35;;
52734;SDS011;38631;47.572;10.704;2023-11-18T06:08:46;4.78;;;3.50;;
52734;SDS011;38631;47.572;10.704;2023-11-18T06:11:13;4.72;;;3.30;;
52734;SDS011;38631;47.572;10.704;2023-11-18T06:13:43;5.22;;;3.90;;
52734;SDS011;38631;47.572;10.704;2023-11-18T06:16:21;8.15;;;4.53;;
52734;SDS011;38631;47.572;10.704;2023-11-18T06:18:52;7.68;;;5.10;;
52734;SDS011;38631;47.572;10.704;2023-11-18T06:21:18;6.13;;;4.55;;
52734;SDS011;38631;47.572;10.704;2023-11-18T06:23:45;5.72;;;4.00;;
52734;SDS011;38631;47.572;10.704;2023-11-18T06:26:12;5.40;;;3.72;;
52734;SDS011;38631;47.572;10.704;2023-11-18T06:28:39;4.45;;;3.10;;
52734;SDS011;38631;47.572;10.704;2023-11-18T06:31:05;3.20;;;2.65;;
52734;SDS011;38631;47.572;10.704;2023-11-18T06:33:36;4.03;;;2.97;;
52734;SDS011;38631;47.572;10.704;2023-11-18T06:36:04;4.28;;;3.35;;
52734;SDS011;38631;47.572;10.704;2023-11-18T06:38:30;3.35;;;2.67;;
52734;SDS011;38631;47.572;10.704;2023-11-18T06:40:56;4.07;;;3.10;;
52734;SDS011;38631;47.572;10.704;2023-11-18T06:43:23;4.20;;;3.50;;
52734;SDS011;38631;47.572;10.704;2023-11-18T06:45:49;4.70;;;2.72;;
52734;SDS011;38631;47.572;10.704;2023-11-18T06:48:15;5.00;;;3.10;;
52734;SDS011;38631;47.572;10.704;2023-11-18T06:50:44;4.15;;;3.15;;
52734;SDS011;38631;47.572;10.704;2023-11-18T06:53:10;4.85;;;3.13;;
52734;SDS011;38631;47.572;10.704;2023-11-18T06:55:36;4.72;;;3.00;;
52734;SDS011;38631;47.572;10.704;2023-11-18T06:58:02;5.18;;;2.97;;
52734;SDS011;38631;47.572;10.704;2023-11-18T07:00:27;5.18;;;2.78;;
52734;SDS011;38631;47.572;10.704;2023-11-18T07:02:54;3.83;;;2.55;;
52734;SDS011;38631;47.572;10.704;2023-11-18T07:05:19;3.75;;;3.20;;
52734;SDS011;38631;47.572;10.704;2023-11-18T07:07:45;4.20;;;2.65;;
52734;SDS011;38631;47.572;10.704;2023-11-18T07:10:11;4.55;;;3.33;;
52734;SDS011;38631;47.572;10.704;2023-11-18T07:12:38;4.28;;;3.00;;
52734;SDS011;38631;47.572;10.704;2023-11-18T07:15:04;5.82;;;4.45;;
52734;SDS011;38631;47.572;10.704;2023-11-18T07:17:30;8.30;;;5.57;;
52734;SDS011;38631;47.572;10.704;2023-11-18T07:19:55;6.40;;;4.88;;
52734;SDS011;38631;47.572;10.704;2023-11-18T07:22:21;6.22;;;4.22;;
52734;SDS011;38631;47.572;10.704;2023-11-18T07:24:46;10.00;;;6.60;;
52734;SDS011;38631;47.572;10.704;2023-11-18T07:27:12;9.27;;;6.97;;
52734;SDS011;38631;47.572;10.704;2023-11-18T07:29:38;9.93;;;6.68;;
52734;SDS011;38631;47.572;10.704;2023-11-18T07:32:03;11.10;;;6.10;;
52734;SDS011;38631;47.572;10.704;2023-11-18T07:34:31;8.10;;;6.15;;
52734;SDS011;38631;47.572;10.704;2023-11-18T07:36:58;6.43;;;5.00;;
52734;SDS011;38631;47.572;10.704;2023-11-18T07:39:24;9.32;;;6.50;;
52734;SDS011;38631;47.572;10.704;2023-11-18T07:42:03;10.32;;;7.32;;
52734;SDS011;38631;47.572;10.704;2023-11-18T07:44:30;12.30;;;7.53;;
52734;SDS011;38631;47.572;10.704;2023-11-18T07:46:58;8.00;;;5.78;;
52734;SDS011;38631;47.572;10.704;2023-11-18T07:49:23;6.38;;;4.47;;
52734;SDS011;38631;47.572;10.704;2023-11-18T07:51:51;8.45;;;5.40;;
52734;SDS011;38631;47.572;10.704;2023-11-18T07:54:16;8.15;;;5.22;;
52734;SDS011;38631;47.572;10.704;2023-11-18T07:56:43;7.43;;;4.88;;
52734;SDS011;38631;47.572;10.704;2023-11-18T07:59:11;8.32;;;5.57;;
52734;SDS011;38631;47.572;10.704;2023-11-18T08:01:41;7.90;;;5.68;;
52734;SDS011;38631;47.572;10.704;2023-11-18T08:04:09;6.70;;;5.00;;
52734;SDS011;38631;47.572;10.704;2023-11-18T08:06:35;6.95;;;4.60;;
52734;SDS011;38631;47.572;10.704;2023-11-18T08:09:00;8.75;;;5.45;;
52734;SDS011;38631;47.572;10.704;2023-11-18T08:11:25;9.93;;;5.40;;
52734;SDS011;38631;47.572;10.704;2023-11-18T08:13:51;4.85;;;3.47;;
52734;SDS011;38631;47.572;10.704;2023-11-18T08:16:16;3.75;;;2.80;;
52734;SDS011;38631;47.572;10.704;2023-11-18T08:18:41;7.70;;;3.72;;
52734;SDS011;38631;47.572;10.704;2023-11-18T08:21:07;8.10;;;4.78;;
52734;SDS011;38631;47.572;10.704;2023-11-18T08:23:32;9.27;;;6.25;;
52734;SDS011;38631;47.572;10.704;2023-11-18T08:25:58;13.27;;;8.30;;
52734;SDS011;38631;47.572;10.704;2023-11-18T08:28:24;9.00;;;5.70;;
52734;SDS011;38631;47.572;10.704;2023-11-18T08:30:50;9.88;;;6.47;;
52734;SDS011;38631;47.572;10.704;2023-11-18T08:33:16;8.20;;;5.72;;
52734;SDS011;38631;47.572;10.704;2023-11-18T08:35:42;4.35;;;3.38;;
52734;SDS011;38631;47.572;10.704;2023-11-18T08:38:07;2.85;;;2.40;;
52734;SDS011;38631;47.572;10.704;2023-11-18T08:40:33;3.10;;;2.35;;
52734;SDS011;38631;47.572;10.704;2023-11-18T08:42:59;4.85;;;2.60;;
52734;SDS011;38631;47.572;10.704;2023-11-18T08:45:26;3.55;;;2.10;;
52734;SDS011;38631;47.572;10.704;2023-11-18T08:47:54;2.30;;;2.08;;
52734;SDS011;38631;47.572;10.704;2023-11-18T08:50:21;4.80;;;1.90;;
52734;SDS011;38631;47.572;10.704;2023-11-18T08:52:49;2.85;;;1.60;;
52734;SDS011;38631;47.572;10.704;2023-11-18T08:55:17;3.47;;;1.85;;
52734;SDS011;38631;47.572;10.704;2023-11-18T08:57:48;1.80;;;1.40;;
52734;SDS011;38631;47.572;10.704;2023-11-18T09:00:26;1.25;;;0.90;;
52734;SDS011;38631;47.572;10.704;2023-11-18T09:03:28;0.45;;;0.43;;
52734;SDS011;38631;47.572;10.704;2023-11-18T09:05:57;1.45;;;0.60;;
52734;SDS011;38631;47.572;10.704;2023-11-18T09:08:27;1.05;;;0.65;;
52734;SDS011;38631;47.572;10.704;2023-11-18T09:11:04;0.98;;;0.63;;
52734;SDS011;38631;47.572;10.704;2023-11-18T09:13:30;0.90;;;0.40;;
52734;SDS011;38631;47.572;10.704;2023-11-18T09:15:57;0.80;;;0.50;;
52734;SDS011;38631;47.572;10.704;2023-11-18T09:18:25;1.48;;;0.40;;
52734;SDS011;38631;47.572;10.704;2023-11-18T09:20:52;0.75;;;0.50;;
52734;SDS011;38631;47.572;10.704;2023-11-18T09:23:21;1.08;;;0.50;;
52734;SDS011;38631;47.572;10.704;2023-11-18T09:25:48;0.73;;;0.57;;
52734;SDS011;38631;47.572;10.704;2023-11-18T09:28:15;0.70;;;0.50;;
52734;SDS011;38631;47.572;10.704;2023-11-18T09:30:44;1.30;;;0.75;;
52734;SDS011;38631;47.572;10.704;2023-11-18T09:33:21;1.05;;;0.60;;
52734;SDS011;38631;47.572;10.704;2023-11-18T09:35:51;4.13;;;1.90;;
52734;SDS011;38631;47.572;10.704;2023-11-18T09:40:47;2.85;;;1.50;;
52734;SDS011;38631;47.572;10.704;2023-11-18T09:43:13;2.22;;;1.05;;
52734;SDS011;38631;47.572;10.704;2023-11-18T09:45:40;1.60;;;1.02;;
52734;SDS011;38631;47.572;10.704;2023-11-18T09:48:08;1.23;;;0.88;;
52734;SDS011;38631;47.572;10.704;2023-11-18T09:50:34;2.50;;;1.13;;
52734;SDS011;38631;47.572;10.704;2023-11-18T09:53:04;2.47;;;1.30;;
52734;SDS011;38631;47.572;10.704;2023-11-18T09:55:43;3.22;;;1.65;;
52734;SDS011;38631;47.572;10.704;2023-11-18T09:58:15;2.42;;;1.40;;
52734;SDS011;38631;47.572;10.704;2023-11-18T10:00:47;2.15;;;1.38;;
52734;SDS011;38631;47.572;10.704;2023-11-18T10:03:15;1.42;;;0.75;;
52734;SDS011;38631;47.572;10.704;2023-11-18T10:05:41;1.42;;;0.90;;
52734;SDS011;38631;47.572;10.704;2023-11-18T10:08:10;1.05;;;0.60;;
52734;SDS011;38631;47.572;10.704;2023-11-18T10:10:35;2.15;;;0.90;;
52734;SDS011;38631;47.572;10.704;2023-11-18T10:13:01;0.65;;;0.50;;
52734;SDS011;38631;47.572;10.704;2023-11-18T10:15:29;1.73;;;0.32;;
52734;SDS011;38631;47.572;10.704;2023-11-18T10:17:56;1.83;;;0.80;;
52734;SDS011;38631;47.572;10.704;2023-11-18T10:23:07;1.80;;;0.93;;
52734;SDS011;38631;47.572;10.704;2023-11-18T10:25:35;1.67;;;1.00;;
52734;SDS011;38631;47.572;10.704;2023-11-18T10:28:05;3.30;;;1.85;;
52734;SDS011;38631;47.572;10.704;2023-11-18T10:30:31;1.92;;;0.63;;
52734;SDS011;38631;47.572;10.704;2023-11-18T10:33:00;0.75;;;0.50;;
52734;SDS011;38631;47.572;10.704;2023-11-18T10:35:34;1.23;;;0.30;;
52734;SDS011;38631;47.572;10.704;2023-11-18T10:38:03;0.88;;;0.40;;
52734;SDS011;38631;47.572;10.704;2023-11-18T10:40:31;0.73;;;0.30;;
52734;SDS011;38631;47.572;10.704;2023-11-18T10:43:03;1.38;;;0.40;;
52734;SDS011;38631;47.572;10.704;2023-11-18T10:45:34;0.30;;;0.20;;
52734;SDS011;38631;47.572;10.704;2023-11-18T10:48:04;0.82;;;0.30;;
52734;SDS011;38631;47.572;10.704;2023-11-18T10:50:31;0.43;;;0.20;;
52734;SDS011;38631;47.572;10.704;2023-11-18T10:52:58;0.85;;;0.30;;
52734;SDS011;38631;47.572;10.704;2023-11-18T10:55:34;0.20;;;0.10;;
52734;SDS011;38631;47.572;10.704;2023-11-18T10:58:01;0.35;;;0.25;;
52734;SDS011;38631;47.572;10.704;2023-11-18T11:00:26;0.20;;;0.20;;
52734;SDS011;38631;47.572;10.704;2023-11-18T11:02:58;0.60;;;0.20;;
52734;SDS011;38631;47.572;10.704;2023-11-18T11:05:30;0.45;;;0.30;;
52734;SDS011;38631;47.572;10.704;2023-11-18T11:08:01;0.70;;;0.40;;
52734;SDS011;38631;47.572;10.704;2023-11-18T11:10:28;1.20;;;0.60;;
52734;SDS011;38631;47.572;10.704;2023-11-18T11:12:53;1.52;;;0.88;;
52734;SDS011;38631;47.572;10.704;2023-11-18T11:15:26;0.38;;;0.20;;
52734;SDS011;38631;47.572;10.704;2023-11-18T11:17:55;0.30;;;0.30;;
52734;SDS011;38631;47.572;10.704;2023-11-18T11:20:34;0.88;;;0.40;;
52734;SDS011;38631;47.572;10.704;2023-11-18T11:23:13;0.35;;;0.20;;
52734;SDS011;38631;47.572;10.704;2023-11-18T11:28:21;0.60;;;0.30;;
52734;SDS011;38631;47.572;10.704;2023-11-18T11:35:57;0.65;;;0.40;;
52734;SDS011;38631;47.572;10.704;2023-11-18T11:38:27;0.88;;;0.32;;
52734;SDS011;38631;47.572;10.704;2023-11-18T11:40:54;0.35;;;0.28;;
52734;SDS011;38631;47.572;10.704;2023-11-18T11:43:22;0.98;;;0.30;;
52734;SDS011;38631;47.572;10.704;2023-11-18T11:45:50;0.40;;;0.30;;
52734;SDS011;38631;47.572;10.704;2023-11-18T11:53:46;0.30;;;0.20;;
52734;SDS011;38631;47.572;10.704;2023-11-18T11:56:17;0.32;;;0.20;;
52734;SDS011;38631;47.572;10.704;2023-11-18T11:58:49;0.60;;;0.30;;
52734;SDS011;38631;47.572;10.704;2023-11-18T12:01:24;0.50;;;0.20;;
52734;SDS011;38631;47.572;10.704;2023-11-18T12:04:02;0.93;;;0.50;;
52734;SDS011;38631;47.572;10.704;2023-11-18T12:06:32;0.43;;;0.20;;
52734;SDS011;38631;47.572;10.704;2023-11-18T12:09:00;0.50;;;0.30;;
52734;SDS011;38631;47.572;10.704;2023-11-18T12:11:32;0.55;;;0.32;;
52734;SDS011;38631;47.572;10.704;2023-11-18T12:14:11;1.15;;;0.70;;
52734;SDS011;38631;47.572;10.704;2023-11-18T12:16:57;0.80;;;0.40;;
52734;SDS011;38631;47.572;10.704;2023-11-18T12:19:50;1.23;;;0.63;;
52734;SDS011;38631;47.572;10.704;2023-11-18T12:22:21;1.40;;;0.93;;
52734;SDS011;38631;47.572;10.704;2023-11-18T12:35:21;1.17;;;0.55;;
52734;SDS011;38631;47.572;10.704;2023-11-18T12:41:00;2.05;;;0.80;;
52734;SDS011;38631;47.572;10.704;2023-11-18T12:43:45;1.67;;;1.05;;
52734;SDS011;38631;47.572;10.704;2023-11-18T12:49:18;0.80;;;0.60;;
52734;SDS011;38631;47.572;10.704;2023-11-18T12:51:54;2.88;;;1.60;;
52734;SDS011;38631;47.572;10.704;2023-11-18T12:54:21;1.02;;;0.55;;
52734;SDS011;38631;47.572;10.704;2023-11-18T12:56:55;0.50;;;0.30;;
52734;SDS011;38631;47.572;10.704;2023-11-18T12:59:47;0.75;;;0.30;;
52734;SDS011;38631;47.572;10.704;2023-11-18T13:02:14;0.50;;;0.50;;
52734;SDS011;38631;47.572;10.704;2023-11-18T13:04:44;1.17;;;0.68;;
52734;SDS011;38631;47.572;10.704;2023-11-18T13:07:12;1.90;;;1.10;;
52734;SDS011;38631;47.572;10.704;2023-11-18T13:09:42;2.42;;;1.00;;
52734;SDS011;38631;47.572;10.704;2023-11-18T13:12:10;4.28;;;1.70;;
52734;SDS011;38631;47.572;10.704;2023-11-18T13:14:39;10.85;;;6.43;;
52734;SDS011;38631;47.572;10.704;2023-11-18T13:17:11;2.08;;;0.90;;
52734;SDS011;38631;47.572;10.704;2023-11-18T13:19:38;2.25;;;0.50;;
52734;SDS011;38631;47.572;10.704;2023-11-18T13:22:05;1.23;;;0.75;;
52734;SDS011;38631;47.572;10.704;2023-11-18T13:24:36;2.60;;;0.82;;
52734;SDS011;38631;47.572;10.704;2023-11-18T13:27:05;1.15;;;0.60;;
52734;SDS011;38631;47.572;10.704;2023-11-18T13:29:33;0.60;;;0.38;;
52734;SDS011;38631;47.572;10.704;2023-11-18T13:32:00;0.73;;;0.50;;
52734;SDS011;38631;47.572;10.704;2023-11-18T13:34:29;1.52;;;0.63;;
52734;SDS011;38631;47.572;10.704;2023-11-18T13:37:07;0.93;;;0.60;;
52734;SDS011;38631;47.572;10.704;2023-11-18T13:39:37;1.08;;;0.70;;
52734;SDS011;38631;47.572;10.704;2023-11-18T13:44:58;0.60;;;0.30;;
52734;SDS011;38631;47.572;10.704;2023-11-18T13:47:55;1.30;;;0.65;;
52734;SDS011;38631;47.572;10.704;2023-11-18T13:50:35;1.38;;;0.57;;
52734;SDS011;38631;47.572;10.704;2023-11-18T13:53:05;0.95;;;0.60;;
52734;SDS011;38631;47.572;10.704;2023-11-18T13:55:31;0.60;;;0.30;;
52734;SDS011;38631;47.572;10.704;2023-11-18T14:02:12;0.68;;;0.40;;
52734;SDS011;38631;47.572;10.704;2023-11-18T14:04:29;1.08;;;0.80;;
52734;SDS011;38631;47.572;10.704;2023-11-18T14:06:59;2.00;;;1.27;;
52734;SDS011;38631;47.572;10.704;2023-11-18T14:09:29;3.03;;;2.40;;
52734;SDS011;38631;47.572;10.704;2023-11-18T14:11:57;1.20;;;0.90;;
52734;SDS011;38631;47.572;10.704;2023-11-18T14:14:23;4.90;;;2.70;;
52734;SDS011;38631;47.572;10.704;2023-11-18T14:16:49;3.83;;;1.58;;
52734;SDS011;38631;47.572;10.704;2023-11-18T14:19:16;2.13;;;1.30;;
52734;SDS011;38631;47.572;10.704;2023-11-18T14:21:43;1.70;;;1.05;;
52734;SDS011;38631;47.572;10.704;2023-11-18T14:24:09;1.73;;;0.80;;
52734;SDS011;38631;47.572;10.704;2023-11-18T14:26:35;1.00;;;0.70;;
52734;SDS011;38631;47.572;10.704;2023-11-18T14:29:01;3.40;;;2.00;;
52734;SDS011;38631;47.572;10.704;2023-11-18T14:31:27;3.63;;;1.60;;
52734;SDS011;38631;47.572;10.704;2023-11-18T14:33:53;2.15;;;1.50;;
52734;SDS011;38631;47.572;10.704;2023-11-18T14:36:26;2.03;;;0.95;;
52734;SDS011;38631;47.572;10.704;2023-11-18T14:38:53;1.80;;;0.80;;
52734;SDS011;38631;47.572;10.704;2023-11-18T14:41:19;1.42;;;0.50;;
52734;SDS011;38631;47.572;10.704;2023-11-18T14:43:47;1.25;;;0.50;;
52734;SDS011;38631;47.572;10.704;2023-11-18T14:46:12;4.75;;;2.05;;
52734;SDS011;38631;47.572;10.704;2023-11-18T14:48:38;3.22;;;1.50;;
52734;SDS011;38631;47.572;10.704;2023-11-18T14:51:04;1.48;;;1.05;;
52734;SDS011;38631;47.572;10.704;2023-11-18T14:53:29;1.52;;;1.10;;
52734;SDS011;38631;47.572;10.704;2023-11-18T14:55:55;1.20;;;0.73;;
52734;SDS011;38631;47.572;10.704;2023-11-18T14:58:22;2.17;;;0.80;;
52734;SDS011;38631;47.572;10.704;2023-11-18T15:00:48;1.42;;;0.90;;
52734;SDS011;38631;47.572;10.704;2023-11-18T15:03:13;1.63;;;0.88;;
52734;SDS011;38631;47.572;10.704;2023-11-18T15:05:41;3.42;;;1.45;;
52734;SDS011;38631;47.572;10.704;2023-11-18T15:08:11;3.47;;;1.52;;
52734;SDS011;38631;47.572;10.704;2023-11-18T15:10:39;2.30;;;1.17;;
52734;SDS011;38631;47.572;10.704;2023-11-18T15:13:06;2.55;;;1.35;;
52734;SDS011;38631;47.572;10.704;2023-11-18T15:15:37;1.83;;;1.25;;
52734;SDS011;38631;47.572;10.704;2023-11-18T15:18:03;1.95;;;1.00;;
52734;SDS011;38631;47.572;10.704;2023-11-18T15:20:31;1.08;;;0.80;;